createdAt,value
2023-06-23T00:03:34.185Z,6.90
2023-06-23T00:09:03.046Z,6.20
2023-06-23T00:14:29.050Z,6.20
2023-06-23T00:19:54.756Z,6.30
2023-06-23T00:25:20.611Z,6.00
2023-06-23T00:30:46.478Z,5.40
2023-06-23T00:36:12.360Z,6.10
2023-06-23T00:41:38.044Z,6.30
2023-06-23T00:47:04.610Z,5.50
2023-06-23T00:52:32.352Z,5.50
2023-06-23T00:57:58.184Z,5.90
2023-06-23T01:03:24.056Z,6.30
2023-06-23T01:08:55.604Z,7.40
2023-06-23T01:14:28.231Z,7.50
2023-06-23T01:20:12.925Z,6.60
2023-06-23T01:25:57.295Z,5.70
2023-06-23T01:31:26.124Z,5.60
2023-06-23T01:36:59.282Z,5.60
2023-06-23T01:42:34.330Z,5.70
2023-06-23T01:48:04.534Z,5.50
2023-06-23T01:53:31.239Z,5.10
2023-06-23T01:59:00.099Z,5.40
2023-06-23T02:04:28.870Z,5.50
2023-06-23T02:09:57.120Z,5.20
2023-06-23T02:15:24.809Z,5.20
2023-06-23T02:20:51.900Z,4.80
2023-06-23T02:26:18.138Z,5.00
2023-06-23T02:31:45.990Z,5.00
2023-06-23T02:37:16.329Z,4.90
2023-06-23T02:42:44.576Z,5.50
2023-06-23T02:48:14.724Z,5.90
2023-06-23T02:53:45.596Z,6.30
2023-06-23T02:59:17.256Z,6.60
2023-06-23T03:04:43.026Z,6.90
2023-06-23T03:10:09.118Z,6.20
2023-06-23T03:15:36.066Z,6.90
2023-06-23T03:21:09.274Z,6.40
2023-06-23T03:26:35.913Z,6.20
2023-06-23T03:32:10.278Z,5.70
2023-06-23T03:37:42.778Z,6.10
2023-06-23T03:43:11.797Z,4.70
2023-06-23T03:48:41.136Z,5.70
2023-06-23T03:54:09.311Z,5.50
2023-06-23T03:59:37.213Z,5.00
2023-06-23T04:05:05.027Z,6.00
2023-06-23T04:10:32.683Z,6.00
2023-06-23T04:16:00.515Z,6.40
2023-06-23T04:21:30.480Z,6.30
2023-06-23T04:26:57.504Z,5.80
2023-06-23T04:32:23.401Z,6.00
2023-06-23T04:37:57.608Z,6.20
2023-06-23T04:43:31.492Z,5.40
2023-06-23T04:49:01.725Z,5.50
2023-06-23T04:54:35.388Z,5.80
2023-06-23T05:00:06.057Z,5.50
2023-06-23T05:05:34.943Z,5.90
2023-06-23T05:11:02.831Z,5.20
2023-06-23T05:16:33.079Z,5.60
2023-06-23T05:22:00.760Z,5.60
2023-06-23T05:27:28.784Z,5.80
2023-06-23T05:32:55.968Z,5.90
2023-06-23T05:38:25.641Z,6.00
2023-06-23T05:43:51.848Z,5.70
2023-06-23T05:49:25.374Z,5.90
2023-06-23T05:54:55.884Z,6.10
2023-06-23T06:00:28.312Z,5.70
2023-06-23T06:05:56.684Z,5.50
2023-06-23T06:11:29.839Z,6.50
2023-06-23T06:16:57.589Z,6.20
2023-06-23T06:22:24.793Z,6.70
2023-06-23T06:27:54.997Z,6.70
2023-06-23T06:33:25.355Z,6.20
2023-06-23T06:38:54.296Z,7.10
2023-06-23T06:44:20.133Z,6.70
2023-06-23T06:49:48.959Z,8.20
2023-06-23T06:55:05.398Z,6.40
2023-06-23T07:00:32.933Z,6.70
2023-06-23T07:11:37.480Z,7.80
2023-06-23T07:16:55.746Z,7.50
2023-06-23T07:22:22.072Z,7.20
2023-06-23T07:27:48.006Z,7.00
2023-06-23T07:33:13.960Z,6.70
2023-06-23T07:38:39.761Z,6.80
2023-06-23T07:44:05.653Z,6.80
2023-06-23T07:49:31.373Z,8.40
2023-06-23T07:54:57.895Z,8.60
2023-06-23T08:00:24.279Z,7.10
2023-06-23T08:05:50.031Z,8.80
2023-06-23T08:11:15.936Z,8.80
2023-06-23T08:16:41.737Z,8.60
2023-06-23T08:22:08.978Z,9.80
2023-06-23T08:27:27.350Z,9.60
2023-06-23T08:32:53.214Z,8.60
2023-06-23T08:38:18.975Z,8.10
2023-06-23T08:43:45.381Z,7.90
2023-06-23T08:49:14.621Z,8.80
2023-06-23T08:54:40.594Z,11.40
2023-06-23T09:00:06.353Z,10.90
2023-06-23T09:05:25.247Z,9.40
2023-06-23T09:10:52.082Z,9.40
2023-06-23T09:16:17.800Z,7.80
2023-06-23T09:21:45.493Z,9.70
2023-06-23T09:27:14.158Z,11.50
2023-06-23T09:32:50.463Z,13.10
2023-06-23T09:38:12.740Z,12.80
2023-06-23T09:43:42.465Z,11.80
2023-06-23T09:49:11.654Z,11.80
2023-06-23T09:54:44.858Z,12.60
2023-06-23T10:00:13.943Z,11.20
2023-06-23T10:05:39.947Z,10.50
2023-06-23T10:11:07.031Z,11.40
2023-06-23T10:16:33.272Z,9.90
2023-06-23T10:22:00.715Z,10.60
2023-06-23T10:27:42.871Z,9.90
2023-06-23T10:33:12.157Z,9.70
2023-06-23T10:38:43.148Z,11.90
2023-06-23T10:44:13.873Z,13.00
2023-06-23T10:49:40.549Z,13.60
2023-06-23T10:55:05.939Z,14.20
2023-06-23T11:00:34.015Z,15.20
2023-06-23T11:06:13.167Z,16.30
2023-06-23T11:11:51.674Z,15.60
2023-06-23T11:17:20.940Z,15.10
2023-06-23T11:22:51.724Z,12.90
2023-06-23T11:28:57.218Z,11.60
2023-06-23T11:34:24.664Z,9.10
2023-06-23T11:39:51.164Z,8.20
2023-06-23T11:45:18.590Z,6.80
2023-06-23T11:50:45.314Z,6.10
2023-06-23T11:56:12.851Z,6.00
2023-06-23T12:01:38.952Z,6.60
2023-06-23T12:07:05.128Z,6.60
2023-06-23T12:12:31.715Z,6.40
2023-06-23T12:18:03.314Z,6.50
2023-06-23T12:23:30.379Z,6.30
2023-06-23T12:28:56.659Z,5.70
2023-06-23T12:34:24.224Z,5.40
2023-06-23T12:39:51.318Z,5.30
2023-06-23T12:45:18.070Z,4.80
2023-06-23T12:50:52.481Z,5.00
2023-06-23T12:56:18.186Z,4.10
2023-06-23T13:01:44.284Z,4.20
2023-06-23T13:07:10.130Z,4.90
2023-06-23T13:12:35.982Z,4.70
2023-06-23T13:18:01.731Z,5.00
2023-06-23T13:23:27.577Z,5.50
2023-06-23T13:28:53.363Z,5.10
2023-06-23T13:34:19.147Z,4.80
2023-06-23T13:39:44.874Z,5.10
2023-06-23T13:45:10.630Z,4.60
2023-06-23T13:50:36.409Z,3.60
2023-06-23T13:56:02.276Z,3.60
2023-06-23T14:01:28.320Z,2.80
2023-06-23T14:06:54.218Z,3.20
2023-06-23T14:12:20.161Z,2.90
2023-06-23T14:23:23.167Z,3.30
2023-06-23T14:28:50.438Z,3.20
2023-06-23T14:34:16.111Z,3.00
2023-06-23T14:39:42.068Z,3.40
2023-06-23T14:45:07.886Z,3.40
2023-06-23T14:50:34.114Z,4.00
2023-06-23T14:55:58.395Z,3.90
2023-06-23T15:01:24.255Z,3.50
2023-06-23T15:06:50.155Z,3.70
2023-06-23T15:12:15.941Z,3.50
2023-06-23T15:17:41.667Z,4.10
2023-06-23T15:23:07.377Z,5.00
2023-06-23T15:28:48.706Z,5.10
2023-06-23T15:34:14.462Z,4.80
2023-06-23T15:39:40.559Z,4.50
2023-06-23T15:45:08.903Z,4.20
2023-06-23T15:50:32.328Z,4.70
2023-06-23T15:55:58.329Z,4.50
2023-06-23T16:01:24.035Z,4.00
2023-06-23T16:06:50.061Z,4.60
2023-06-23T16:12:16.628Z,4.90
2023-06-23T16:17:42.838Z,4.40
2023-06-23T16:23:12.060Z,4.80
2023-06-23T16:28:36.473Z,4.60
2023-06-23T16:34:02.491Z,4.90
2023-06-23T16:39:28.292Z,5.30
2023-06-23T16:44:54.127Z,5.10
2023-06-23T16:50:19.986Z,5.70
2023-06-23T16:55:47.032Z,6.20
2023-06-23T17:01:13.108Z,6.00
2023-06-23T17:06:39.012Z,6.30
2023-06-23T17:17:33.664Z,6.50
2023-06-23T17:22:59.713Z,7.30
2023-06-23T17:28:25.804Z,7.10
2023-06-23T17:33:50.377Z,7.80
2023-06-23T17:39:16.198Z,7.10
2023-06-23T17:44:42.030Z,9.00
2023-06-23T17:49:58.062Z,7.50
2023-06-23T17:55:25.543Z,8.00
2023-06-23T18:00:51.613Z,7.30
2023-06-23T18:06:10.057Z,8.70
2023-06-23T18:11:35.865Z,8.60
2023-06-23T18:17:01.916Z,9.00
2023-06-23T18:22:27.855Z,8.10
2023-06-23T18:27:53.787Z,9.50
2023-06-23T18:33:19.636Z,8.80
2023-06-23T18:38:45.448Z,8.70
2023-06-23T18:44:11.911Z,8.30
2023-06-23T18:49:37.798Z,8.50
2023-06-23T18:55:03.852Z,7.70
2023-06-23T19:00:33.373Z,7.90
2023-06-23T19:05:59.801Z,6.90
2023-06-23T19:11:25.819Z,7.70
2023-06-23T19:16:51.883Z,8.20
2023-06-23T19:22:10.656Z,7.60
2023-06-23T19:27:36.572Z,7.00
2023-06-23T19:33:02.446Z,7.50
2023-06-23T19:38:28.429Z,7.40
2023-06-23T19:43:54.278Z,7.00
2023-06-23T19:49:19.974Z,7.60
2023-06-23T19:54:45.769Z,7.40
2023-06-23T20:00:11.521Z,7.50
2023-06-23T20:05:37.470Z,7.30
2023-06-23T20:11:03.254Z,7.60
2023-06-23T20:16:29.118Z,8.10
2023-06-23T20:21:55.072Z,7.70
2023-06-23T20:27:20.902Z,7.90
2023-06-23T20:32:47.102Z,7.60
2023-06-23T20:38:12.974Z,7.40
2023-06-23T20:43:38.915Z,8.60
2023-06-23T20:49:04.759Z,7.00
2023-06-23T20:54:30.791Z,8.00
2023-06-23T20:59:56.650Z,8.00
2023-06-23T21:05:19.299Z,7.90
2023-06-23T21:10:47.000Z,8.60
2023-06-23T21:16:12.916Z,8.20
2023-06-23T21:21:38.769Z,8.50
2023-06-23T21:26:59.289Z,8.60
2023-06-23T21:32:25.783Z,8.60
2023-06-23T21:37:51.577Z,8.90
2023-06-23T21:43:17.400Z,8.60
2023-06-23T21:48:42.935Z,8.50
2023-06-23T21:54:08.627Z,8.10
2023-06-23T21:59:36.329Z,7.60
2023-06-23T22:05:02.079Z,8.00
2023-06-23T22:10:30.719Z,7.70
2023-06-23T22:15:56.454Z,7.60
2023-06-23T22:21:22.454Z,7.20
2023-06-23T22:26:48.307Z,7.20
2023-06-23T22:32:14.143Z,7.10
2023-06-23T22:37:40.045Z,6.80
2023-06-23T22:43:06.001Z,6.80
2023-06-23T22:48:31.880Z,7.70
2023-06-23T22:53:47.284Z,7.20
2023-06-23T22:59:13.069Z,7.50
2023-06-23T23:04:39.115Z,7.60
2023-06-23T23:10:04.845Z,7.30
2023-06-23T23:15:32.679Z,7.20
2023-06-23T23:20:58.477Z,7.50
2023-06-23T23:26:24.302Z,7.60
2023-06-23T23:31:50.086Z,7.60
2023-06-23T23:37:15.986Z,7.80
2023-06-23T23:42:41.835Z,8.60
2023-06-23T23:48:07.916Z,8.10
2023-06-23T23:53:33.715Z,7.90
2023-06-23T23:58:59.553Z,7.70
